Metar Flugplatz Niederstetten

ETHN 132320Z 16007KT 9999 SCT080 BKN100 19/17 Q1016 BLU



Temperatur Niederstetten
19 Grad Celsius

QNH Niederstetten
1016
==============================================================

TAF Niederstetten:

TAF ETHN 291027Z 2911/3002 24010KT 9999 NSW FEW240 TEMPO 2911/2916 26012G22KT 9999 NSW SCT035 BKN240



Alle Angaben ohne Gewähr